sensor_id;sensor_type;location;lat;lon;timestamp;temperature;humidity
47310;DHT22;33046;52.270;6.832;2023-12-22T00:00:06;8.80;99.90
47310;DHT22;33046;52.270;6.832;2023-12-22T00:02:13;8.80;99.90
47310;DHT22;33046;52.270;6.832;2023-12-22T00:04:20;8.70;99.90
47310;DHT22;33046;52.270;6.832;2023-12-22T00:06:27;8.70;99.90
47310;DHT22;33046;52.270;6.832;2023-12-22T00:08:34;8.70;99.90
47310;DHT22;33046;52.270;6.832;2023-12-22T00:10:41;8.70;99.90
47310;DHT22;33046;52.270;6.832;2023-12-22T00:12:47;8.70;99.90
47310;DHT22;33046;52.270;6.832;2023-12-22T00:14:56;8.80;99.90
47310;DHT22;33046;52.270;6.832;2023-12-22T00:17:03;8.80;99.90
47310;DHT22;33046;52.270;6.832;2023-12-22T00:19:10;8.70;99.90
47310;DHT22;33046;52.270;6.832;2023-12-22T00:21:17;8.70;99.90
47310;DHT22;33046;52.270;6.832;2023-12-22T00:23:24;8.80;99.90
47310;DHT22;33046;52.270;6.832;2023-12-22T00:25:30;8.70;99.90
47310;DHT22;33046;52.270;6.832;2023-12-22T00:27:37;8.70;99.90
47310;DHT22;33046;52.270;6.832;2023-12-22T00:29:44;8.60;99.90
47310;DHT22;33046;52.270;6.832;2023-12-22T00:31:52;8.70;99.90
47310;DHT22;33046;52.270;6.832;2023-12-22T00:33:59;8.70;99.90
47310;DHT22;33046;52.270;6.832;2023-12-22T00:36:07;8.70;99.90
47310;DHT22;33046;52.270;6.832;2023-12-22T00:38:14;8.70;99.90
47310;DHT22;33046;52.270;6.832;2023-12-22T00:40:21;8.70;99.90
47310;DHT22;33046;52.270;6.832;2023-12-22T00:42:28;8.70;99.90
47310;DHT22;33046;52.270;6.832;2023-12-22T00:44:35;8.70;99.90
47310;DHT22;33046;52.270;6.832;2023-12-22T00:46:41;8.70;99.90
47310;DHT22;33046;52.270;6.832;2023-12-22T00:48:50;8.70;99.90
47310;DHT22;33046;52.270;6.832;2023-12-22T00:50:56;8.70;99.90
47310;DHT22;33046;52.270;6.832;2023-12-22T00:53:03;8.70;99.90
47310;DHT22;33046;52.270;6.832;2023-12-22T00:55:10;8.70;99.90
47310;DHT22;33046;52.270;6.832;2023-12-22T00:57:17;8.70;99.90
47310;DHT22;33046;52.270;6.832;2023-12-22T00:59:24;8.70;99.90
47310;DHT22;33046;52.270;6.832;2023-12-22T01:01:31;8.80;99.90
47310;DHT22;33046;52.270;6.832;2023-12-22T01:03:38;8.80;99.90
47310;DHT22;33046;52.270;6.832;2023-12-22T01:05:46;8.70;99.90
47310;DHT22;33046;52.270;6.832;2023-12-22T01:07:53;8.70;99.90
47310;DHT22;33046;52.270;6.832;2023-12-22T01:10:00;8.70;99.90
47310;DHT22;33046;52.270;6.832;2023-12-22T01:12:06;8.70;99.90
47310;DHT22;33046;52.270;6.832;2023-12-22T01:14:13;8.70;99.90
47310;DHT22;33046;52.270;6.832;2023-12-22T01:16:20;8.70;99.90
47310;DHT22;33046;52.270;6.832;2023-12-22T01:18:27;8.70;99.90
47310;DHT22;33046;52.270;6.832;2023-12-22T01:20:34;8.70;99.90
47310;DHT22;33046;52.270;6.832;2023-12-22T01:22:42;8.60;99.90
47310;DHT22;33046;52.270;6.832;2023-12-22T01:24:49;8.70;99.90
47310;DHT22;33046;52.270;6.832;2023-12-22T01:26:55;8.70;99.90
47310;DHT22;33046;52.270;6.832;2023-12-22T01:29:02;8.60;99.90
47310;DHT22;33046;52.270;6.832;2023-12-22T01:31:09;8.60;99.90
47310;DHT22;33046;52.270;6.832;2023-12-22T01:33:16;8.60;99.90
47310;DHT22;33046;52.270;6.832;2023-12-22T01:35:23;8.60;99.90
47310;DHT22;33046;52.270;6.832;2023-12-22T01:37:30;8.60;99.90
47310;DHT22;33046;52.270;6.832;2023-12-22T01:39:38;8.60;99.90
47310;DHT22;33046;52.270;6.832;2023-12-22T01:41:45;8.60;99.90
47310;DHT22;33046;52.270;6.832;2023-12-22T01:43:52;8.50;99.70
47310;DHT22;33046;52.270;6.832;2023-12-22T01:45:59;8.50;99.60
47310;DHT22;33046;52.270;6.832;2023-12-22T01:48:07;8.60;99.80
47310;DHT22;33046;52.270;6.832;2023-12-22T01:50:15;8.60;99.90
47310;DHT22;33046;52.270;6.832;2023-12-22T01:52:23;8.60;99.90
47310;DHT22;33046;52.270;6.832;2023-12-22T01:54:31;8.60;99.90
47310;DHT22;33046;52.270;6.832;2023-12-22T01:56:39;8.60;99.90
47310;DHT22;33046;52.270;6.832;2023-12-22T01:58:46;8.60;99.90
47310;DHT22;33046;52.270;6.832;2023-12-22T02:00:58;8.60;99.90
47310;DHT22;33046;52.270;6.832;2023-12-22T02:03:05;8.60;99.90
47310;DHT22;33046;52.270;6.832;2023-12-22T02:05:12;8.60;99.90
47310;DHT22;33046;52.270;6.832;2023-12-22T02:07:19;8.70;99.90
47310;DHT22;33046;52.270;6.832;2023-12-22T02:09:27;8.70;99.90
47310;DHT22;33046;52.270;6.832;2023-12-22T02:11:34;8.60;99.90
47310;DHT22;33046;52.270;6.832;2023-12-22T02:13:42;8.60;99.90
47310;DHT22;33046;52.270;6.832;2023-12-22T02:15:56;8.60;99.90
47310;DHT22;33046;52.270;6.832;2023-12-22T02:18:09;8.60;99.90
47310;DHT22;33046;52.270;6.832;2023-12-22T02:20:17;8.70;99.90
47310;DHT22;33046;52.270;6.832;2023-12-22T02:22:24;8.70;99.90
47310;DHT22;33046;52.270;6.832;2023-12-22T02:24:32;8.70;99.90
47310;DHT22;33046;52.270;6.832;2023-12-22T02:26:43;8.60;99.90
47310;DHT22;33046;52.270;6.832;2023-12-22T02:28:53;8.60;99.90
47310;DHT22;33046;52.270;6.832;2023-12-22T02:31:09;8.40;99.90
47310;DHT22;33046;52.270;6.832;2023-12-22T02:33:18;8.40;99.90
47310;DHT22;33046;52.270;6.832;2023-12-22T02:35:29;8.40;99.90
47310;DHT22;33046;52.270;6.832;2023-12-22T02:37:39;8.50;99.90
47310;DHT22;33046;52.270;6.832;2023-12-22T02:39:48;8.50;99.90
47310;DHT22;33046;52.270;6.832;2023-12-22T02:41:55;8.50;99.90
47310;DHT22;33046;52.270;6.832;2023-12-22T02:44:02;8.40;99.90
47310;DHT22;33046;52.270;6.832;2023-12-22T02:46:13;8.40;99.90
47310;DHT22;33046;52.270;6.832;2023-12-22T02:48:20;8.40;99.90
47310;DHT22;33046;52.270;6.832;2023-12-22T02:50:27;8.40;99.90
47310;DHT22;33046;52.270;6.832;2023-12-22T02:52:34;8.40;99.90
47310;DHT22;33046;52.270;6.832;2023-12-22T02:54:41;8.40;99.90
47310;DHT22;33046;52.270;6.832;2023-12-22T02:56:49;8.40;99.90
47310;DHT22;33046;52.270;6.832;2023-12-22T02:58:56;8.30;99.90
47310;DHT22;33046;52.270;6.832;2023-12-22T03:01:03;8.30;99.90
47310;DHT22;33046;52.270;6.832;2023-12-22T03:03:10;8.30;99.90
47310;DHT22;33046;52.270;6.832;2023-12-22T03:05:17;8.20;99.90
47310;DHT22;33046;52.270;6.832;2023-12-22T03:07:24;8.20;99.90
47310;DHT22;33046;52.270;6.832;2023-12-22T03:09:30;8.20;99.90
47310;DHT22;33046;52.270;6.832;2023-12-22T03:11:37;8.10;99.90
47310;DHT22;33046;52.270;6.832;2023-12-22T03:13:45;8.10;99.90
47310;DHT22;33046;52.270;6.832;2023-12-22T03:15:52;8.00;99.90
47310;DHT22;33046;52.270;6.832;2023-12-22T03:17:59;7.90;99.90
47310;DHT22;33046;52.270;6.832;2023-12-22T03:20:06;8.00;99.90
47310;DHT22;33046;52.270;6.832;2023-12-22T03:22:13;7.90;99.90
47310;DHT22;33046;52.270;6.832;2023-12-22T03:24:20;8.00;99.90
47310;DHT22;33046;52.270;6.832;2023-12-22T03:26:27;7.90;99.90
47310;DHT22;33046;52.270;6.832;2023-12-22T03:28:34;8.00;99.90
47310;DHT22;33046;52.270;6.832;2023-12-22T03:30:42;8.00;99.90
47310;DHT22;33046;52.270;6.832;2023-12-22T03:32:49;8.00;99.90
47310;DHT22;33046;52.270;6.832;2023-12-22T03:34:56;8.00;99.90
47310;DHT22;33046;52.270;6.832;2023-12-22T03:37:03;8.00;99.90
47310;DHT22;33046;52.270;6.832;2023-12-22T03:39:10;8.10;99.90
47310;DHT22;33046;52.270;6.832;2023-12-22T03:41:17;8.10;99.90
47310;DHT22;33046;52.270;6.832;2023-12-22T03:43:23;8.10;99.90
47310;DHT22;33046;52.270;6.832;2023-12-22T03:45:30;8.10;99.90
47310;DHT22;33046;52.270;6.832;2023-12-22T03:47:38;8.10;99.90
47310;DHT22;33046;52.270;6.832;2023-12-22T03:49:45;8.10;99.90
47310;DHT22;33046;52.270;6.832;2023-12-22T03:51:52;8.00;99.90
47310;DHT22;33046;52.270;6.832;2023-12-22T03:53:59;8.00;99.90
47310;DHT22;33046;52.270;6.832;2023-12-22T03:56:07;8.10;99.90
47310;DHT22;33046;52.270;6.832;2023-12-22T03:58:14;8.00;99.90
47310;DHT22;33046;52.270;6.832;2023-12-22T04:00:21;7.90;99.90
47310;DHT22;33046;52.270;6.832;2023-12-22T04:02:28;7.90;99.90
47310;DHT22;33046;52.270;6.832;2023-12-22T04:04:38;7.90;99.90
47310;DHT22;33046;52.270;6.832;2023-12-22T04:06:45;7.90;99.90
47310;DHT22;33046;52.270;6.832;2023-12-22T04:08:52;7.90;99.90
47310;DHT22;33046;52.270;6.832;2023-12-22T04:10:59;8.00;99.90
47310;DHT22;33046;52.270;6.832;2023-12-22T04:13:06;7.90;99.90
47310;DHT22;33046;52.270;6.832;2023-12-22T04:15:13;7.90;99.90
47310;DHT22;33046;52.270;6.832;2023-12-22T04:17:19;7.90;99.90
47310;DHT22;33046;52.270;6.832;2023-12-22T04:19:26;8.00;99.90
47310;DHT22;33046;52.270;6.832;2023-12-22T04:21:35;7.90;99.90
47310;DHT22;33046;52.270;6.832;2023-12-22T04:23:42;8.00;99.90
47310;DHT22;33046;52.270;6.832;2023-12-22T04:25:49;8.00;99.90
47310;DHT22;33046;52.270;6.832;2023-12-22T04:27:56;8.00;99.90
47310;DHT22;33046;52.270;6.832;2023-12-22T04:30:03;8.00;99.90
47310;DHT22;33046;52.270;6.832;2023-12-22T04:32:10;8.10;99.90
47310;DHT22;33046;52.270;6.832;2023-12-22T04:34:17;8.00;99.90
47310;DHT22;33046;52.270;6.832;2023-12-22T04:36:24;8.00;99.90
47310;DHT22;33046;52.270;6.832;2023-12-22T04:38:32;8.00;99.90
47310;DHT22;33046;52.270;6.832;2023-12-22T04:40:39;8.00;99.90
47310;DHT22;33046;52.270;6.832;2023-12-22T04:42:45;8.10;99.90
47310;DHT22;33046;52.270;6.832;2023-12-22T04:44:52;8.10;99.90
47310;DHT22;33046;52.270;6.832;2023-12-22T04:46:59;8.00;99.90
47310;DHT22;33046;52.270;6.832;2023-12-22T04:49:06;8.00;99.90
47310;DHT22;33046;52.270;6.832;2023-12-22T04:51:13;8.00;99.90
47310;DHT22;33046;52.270;6.832;2023-12-22T04:53:20;8.00;99.90
47310;DHT22;33046;52.270;6.832;2023-12-22T04:55:28;8.00;99.90
47310;DHT22;33046;52.270;6.832;2023-12-22T04:57:35;8.00;99.90
47310;DHT22;33046;52.270;6.832;2023-12-22T04:59:42;7.90;99.90
47310;DHT22;33046;52.270;6.832;2023-12-22T05:01:49;7.90;99.90
47310;DHT22;33046;52.270;6.832;2023-12-22T05:03:55;8.00;99.90
47310;DHT22;33046;52.270;6.832;2023-12-22T05:06:03;8.00;99.90
47310;DHT22;33046;52.270;6.832;2023-12-22T05:08:09;8.00;99.90
47310;DHT22;33046;52.270;6.832;2023-12-22T05:10:16;8.00;99.90
47310;DHT22;33046;52.270;6.832;2023-12-22T05:12:25;8.00;99.90
47310;DHT22;33046;52.270;6.832;2023-12-22T05:14:31;7.90;99.90
47310;DHT22;33046;52.270;6.832;2023-12-22T05:16:38;7.90;99.90
47310;DHT22;33046;52.270;6.832;2023-12-22T05:18:46;7.90;99.90
47310;DHT22;33046;52.270;6.832;2023-12-22T05:20:53;7.90;99.90
47310;DHT22;33046;52.270;6.832;2023-12-22T05:22:59;8.00;99.90
47310;DHT22;33046;52.270;6.832;2023-12-22T05:25:07;8.00;99.90
47310;DHT22;33046;52.270;6.832;2023-12-22T05:27:14;8.00;99.90
47310;DHT22;33046;52.270;6.832;2023-12-22T05:29:22;8.00;99.90
47310;DHT22;33046;52.270;6.832;2023-12-22T05:31:29;7.90;99.90
47310;DHT22;33046;52.270;6.832;2023-12-22T05:33:36;8.00;99.90
47310;DHT22;33046;52.270;6.832;2023-12-22T05:35:43;7.90;99.90
47310;DHT22;33046;52.270;6.832;2023-12-22T05:37:50;8.00;99.90
47310;DHT22;33046;52.270;6.832;2023-12-22T05:39:57;8.00;99.90
47310;DHT22;33046;52.270;6.832;2023-12-22T05:42:04;7.90;99.90
47310;DHT22;33046;52.270;6.832;2023-12-22T05:44:11;8.00;99.90
47310;DHT22;33046;52.270;6.832;2023-12-22T05:46:19;8.00;99.90
47310;DHT22;33046;52.270;6.832;2023-12-22T05:48:26;8.00;99.90
47310;DHT22;33046;52.270;6.832;2023-12-22T05:50:33;8.00;99.90
47310;DHT22;33046;52.270;6.832;2023-12-22T05:52:40;8.10;99.90
47310;DHT22;33046;52.270;6.832;2023-12-22T05:54:47;8.10;99.90
47310;DHT22;33046;52.270;6.832;2023-12-22T05:56:54;8.10;99.90
47310;DHT22;33046;52.270;6.832;2023-12-22T05:59:02;8.00;99.90
47310;DHT22;33046;52.270;6.832;2023-12-22T06:01:14;8.10;99.90
47310;DHT22;33046;52.270;6.832;2023-12-22T06:03:22;8.10;99.90
47310;DHT22;33046;52.270;6.832;2023-12-22T06:05:29;8.10;99.90
47310;DHT22;33046;52.270;6.832;2023-12-22T06:07:36;8.10;99.90
47310;DHT22;33046;52.270;6.832;2023-12-22T06:09:43;8.10;99.90
47310;DHT22;33046;52.270;6.832;2023-12-22T06:11:50;8.10;99.90
47310;DHT22;33046;52.270;6.832;2023-12-22T06:13:56;8.10;99.90
47310;DHT22;33046;52.270;6.832;2023-12-22T06:16:04;8.10;99.90
47310;DHT22;33046;52.270;6.832;2023-12-22T06:18:10;8.10;99.90
47310;DHT22;33046;52.270;6.832;2023-12-22T06:20:19;8.10;99.90
47310;DHT22;33046;52.270;6.832;2023-12-22T06:22:25;8.10;99.90
47310;DHT22;33046;52.270;6.832;2023-12-22T06:24:34;8.10;99.90
47310;DHT22;33046;52.270;6.832;2023-12-22T06:26:41;8.10;99.90
47310;DHT22;33046;52.270;6.832;2023-12-22T06:28:48;8.10;99.90
47310;DHT22;33046;52.270;6.832;2023-12-22T06:30:55;8.10;99.90
47310;DHT22;33046;52.270;6.832;2023-12-22T06:33:02;8.10;99.90
47310;DHT22;33046;52.270;6.832;2023-12-22T06:35:09;8.10;99.90
47310;DHT22;33046;52.270;6.832;2023-12-22T06:37:17;8.20;99.90
47310;DHT22;33046;52.270;6.832;2023-12-22T06:39:24;8.20;99.90
47310;DHT22;33046;52.270;6.832;2023-12-22T06:41:31;8.10;99.90
47310;DHT22;33046;52.270;6.832;2023-12-22T06:43:38;8.20;99.90
47310;DHT22;33046;52.270;6.832;2023-12-22T06:45:45;8.20;99.90
47310;DHT22;33046;52.270;6.832;2023-12-22T06:47:51;8.20;99.90
47310;DHT22;33046;52.270;6.832;2023-12-22T06:49:58;8.10;99.90
47310;DHT22;33046;52.270;6.832;2023-12-22T06:52:05;8.20;99.90
47310;DHT22;33046;52.270;6.832;2023-12-22T06:54:13;8.20;99.90
47310;DHT22;33046;52.270;6.832;2023-12-22T06:56:22;8.20;99.90
47310;DHT22;33046;52.270;6.832;2023-12-22T06:58:29;8.20;99.90
47310;DHT22;33046;52.270;6.832;2023-12-22T07:00:35;8.20;99.90
47310;DHT22;33046;52.270;6.832;2023-12-22T07:02:42;8.20;99.90
47310;DHT22;33046;52.270;6.832;2023-12-22T07:05:03;8.10;99.90
47310;DHT22;33046;52.270;6.832;2023-12-22T07:07:10;8.00;99.90
47310;DHT22;33046;52.270;6.832;2023-12-22T07:09:33;8.00;99.90
47310;DHT22;33046;52.270;6.832;2023-12-22T07:11:40;8.10;99.90
47310;DHT22;33046;52.270;6.832;2023-12-22T07:13:47;8.10;99.90
47310;DHT22;33046;52.270;6.832;2023-12-22T07:15:54;8.10;99.90
47310;DHT22;33046;52.270;6.832;2023-12-22T07:18:01;8.20;99.90
47310;DHT22;33046;52.270;6.832;2023-12-22T07:20:09;8.20;99.90
47310;DHT22;33046;52.270;6.832;2023-12-22T07:22:16;8.20;99.90
47310;DHT22;33046;52.270;6.832;2023-12-22T07:24:23;8.20;99.90
47310;DHT22;33046;52.270;6.832;2023-12-22T07:26:31;8.20;99.90
47310;DHT22;33046;52.270;6.832;2023-12-22T07:28:38;8.10;99.90
47310;DHT22;33046;52.270;6.832;2023-12-22T07:30:45;8.10;99.90
47310;DHT22;33046;52.270;6.832;2023-12-22T07:32:52;8.00;99.90
47310;DHT22;33046;52.270;6.832;2023-12-22T07:34:59;8.00;99.90
47310;DHT22;33046;52.270;6.832;2023-12-22T07:37:06;8.00;99.90
47310;DHT22;33046;52.270;6.832;2023-12-22T07:39:13;7.90;99.90
47310;DHT22;33046;52.270;6.832;2023-12-22T07:41:20;7.90;99.90
47310;DHT22;33046;52.270;6.832;2023-12-22T07:43:28;7.90;99.90
47310;DHT22;33046;52.270;6.832;2023-12-22T07:45:35;7.80;99.90
47310;DHT22;33046;52.270;6.832;2023-12-22T07:47:42;7.80;99.90
47310;DHT22;33046;52.270;6.832;2023-12-22T07:49:49;7.80;99.90
47310;DHT22;33046;52.270;6.832;2023-12-22T07:51:56;7.90;99.90
47310;DHT22;33046;52.270;6.832;2023-12-22T07:54:03;7.80;99.90
47310;DHT22;33046;52.270;6.832;2023-12-22T07:56:10;7.90;99.90
47310;DHT22;33046;52.270;6.832;2023-12-22T07:58:17;7.90;99.90
47310;DHT22;33046;52.270;6.832;2023-12-22T08:00:25;7.90;99.90
47310;DHT22;33046;52.270;6.832;2023-12-22T08:02:32;7.90;99.90
47310;DHT22;33046;52.270;6.832;2023-12-22T08:04:39;8.00;99.90
47310;DHT22;33046;52.270;6.832;2023-12-22T08:06:46;7.90;99.90
47310;DHT22;33046;52.270;6.832;2023-12-22T08:08:53;8.00;99.90
47310;DHT22;33046;52.270;6.832;2023-12-22T08:10:59;8.00;99.90
47310;DHT22;33046;52.270;6.832;2023-12-22T08:13:06;8.00;99.90
47310;DHT22;33046;52.270;6.832;2023-12-22T08:15:13;8.00;99.90
47310;DHT22;33046;52.270;6.832;2023-12-22T08:17:25;8.00;99.90
47310;DHT22;33046;52.270;6.832;2023-12-22T08:19:32;8.00;99.90
47310;DHT22;33046;52.270;6.832;2023-12-22T08:21:39;8.00;99.90
47310;DHT22;33046;52.270;6.832;2023-12-22T08:23:48;8.00;99.90
47310;DHT22;33046;52.270;6.832;2023-12-22T08:25:56;8.10;99.90
47310;DHT22;33046;52.270;6.832;2023-12-22T08:28:03;8.00;99.90
47310;DHT22;33046;52.270;6.832;2023-12-22T08:30:11;8.00;99.90
47310;DHT22;33046;52.270;6.832;2023-12-22T08:32:18;8.10;99.90
47310;DHT22;33046;52.270;6.832;2023-12-22T08:34:26;8.10;99.90
47310;DHT22;33046;52.270;6.832;2023-12-22T08:36:33;8.10;99.90
47310;DHT22;33046;52.270;6.832;2023-12-22T08:38:40;8.10;99.90
47310;DHT22;33046;52.270;6.832;2023-12-22T08:40:46;8.20;99.90
47310;DHT22;33046;52.270;6.832;2023-12-22T08:42:53;8.10;99.90
47310;DHT22;33046;52.270;6.832;2023-12-22T08:45:00;8.10;99.90
47310;DHT22;33046;52.270;6.832;2023-12-22T08:47:07;8.10;99.90
47310;DHT22;33046;52.270;6.832;2023-12-22T08:49:14;8.20;99.90
47310;DHT22;33046;52.270;6.832;2023-12-22T08:51:22;8.10;99.90
47310;DHT22;33046;52.270;6.832;2023-12-22T08:53:29;8.10;99.90
47310;DHT22;33046;52.270;6.832;2023-12-22T08:55:36;8.10;99.90
47310;DHT22;33046;52.270;6.832;2023-12-22T08:57:43;8.10;99.90
47310;DHT22;33046;52.270;6.832;2023-12-22T08:59:52;8.10;99.90
47310;DHT22;33046;52.270;6.832;2023-12-22T09:01:59;8.20;99.90
47310;DHT22;33046;52.270;6.832;2023-12-22T09:04:07;8.20;99.90
47310;DHT22;33046;52.270;6.832;2023-12-22T09:06:16;8.20;99.90
47310;DHT22;33046;52.270;6.832;2023-12-22T09:08:24;8.30;99.90
47310;DHT22;33046;52.270;6.832;2023-12-22T09:10:31;8.30;99.90
47310;DHT22;33046;52.270;6.832;2023-12-22T09:12:38;8.30;99.90
47310;DHT22;33046;52.270;6.832;2023-12-22T09:14:45;8.40;99.90
47310;DHT22;33046;52.270;6.832;2023-12-22T09:16:52;8.40;99.90
47310;DHT22;33046;52.270;6.832;2023-12-22T09:18:58;8.40;99.90
47310;DHT22;33046;52.270;6.832;2023-12-22T09:21:05;8.40;99.90
47310;DHT22;33046;52.270;6.832;2023-12-22T09:23:12;8.40;99.90
47310;DHT22;33046;52.270;6.832;2023-12-22T09:25:21;8.40;99.90
47310;DHT22;33046;52.270;6.832;2023-12-22T09:27:28;8.50;99.90
47310;DHT22;33046;52.270;6.832;2023-12-22T09:29:35;8.50;99.90
47310;DHT22;33046;52.270;6.832;2023-12-22T09:31:42;8.50;99.90
47310;DHT22;33046;52.270;6.832;2023-12-22T09:33:49;8.50;99.90
47310;DHT22;33046;52.270;6.832;2023-12-22T09:35:56;8.50;99.90
47310;DHT22;33046;52.270;6.832;2023-12-22T09:38:03;8.50;99.90
47310;DHT22;33046;52.270;6.832;2023-12-22T09:40:10;8.50;99.90
47310;DHT22;33046;52.270;6.832;2023-12-22T09:42:19;8.50;99.90
47310;DHT22;33046;52.270;6.832;2023-12-22T09:44:30;8.50;99.90
47310;DHT22;33046;52.270;6.832;2023-12-22T09:46:38;8.50;99.90
47310;DHT22;33046;52.270;6.832;2023-12-22T09:48:46;8.50;99.90
47310;DHT22;33046;52.270;6.832;2023-12-22T09:50:54;8.50;99.90
47310;DHT22;33046;52.270;6.832;2023-12-22T09:53:01;8.40;99.90
47310;DHT22;33046;52.270;6.832;2023-12-22T09:55:10;8.40;99.90
47310;DHT22;33046;52.270;6.832;2023-12-22T09:57:19;8.30;99.90
47310;DHT22;33046;52.270;6.832;2023-12-22T09:59:28;8.30;99.90
47310;DHT22;33046;52.270;6.832;2023-12-22T10:01:37;8.40;99.90
47310;DHT22;33046;52.270;6.832;2023-12-22T10:03:45;8.40;99.90
47310;DHT22;33046;52.270;6.832;2023-12-22T10:05:52;8.40;99.90
47310;DHT22;33046;52.270;6.832;2023-12-22T10:08:00;8.40;99.90
47310;DHT22;33046;52.270;6.832;2023-12-22T10:10:07;8.40;99.90
47310;DHT22;33046;52.270;6.832;2023-12-22T10:12:15;8.40;99.90
47310;DHT22;33046;52.270;6.832;2023-12-22T10:14:25;8.40;99.90
47310;DHT22;33046;52.270;6.832;2023-12-22T10:16:33;8.40;99.90
47310;DHT22;33046;52.270;6.832;2023-12-22T10:18:39;8.30;99.90
47310;DHT22;33046;52.270;6.832;2023-12-22T10:20:46;8.30;99.90
47310;DHT22;33046;52.270;6.832;2023-12-22T10:22:53;8.30;99.90
47310;DHT22;33046;52.270;6.832;2023-12-22T10:25:00;8.30;99.90
47310;DHT22;33046;52.270;6.832;2023-12-22T10:27:07;8.20;99.90
47310;DHT22;33046;52.270;6.832;2023-12-22T10:29:14;8.20;99.90
47310;DHT22;33046;52.270;6.832;2023-12-22T10:31:22;8.20;99.90
47310;DHT22;33046;52.270;6.832;2023-12-22T10:33:30;8.30;99.90
47310;DHT22;33046;52.270;6.832;2023-12-22T10:35:37;8.30;99.90
47310;DHT22;33046;52.270;6.832;2023-12-22T10:37:45;8.30;99.90
47310;DHT22;33046;52.270;6.832;2023-12-22T10:39:52;8.30;99.90
47310;DHT22;33046;52.270;6.832;2023-12-22T10:42:00;8.30;99.90
47310;DHT22;33046;52.270;6.832;2023-12-22T10:44:07;8.40;99.90
47310;DHT22;33046;52.270;6.832;2023-12-22T10:46:14;8.30;99.90
47310;DHT22;33046;52.270;6.832;2023-12-22T10:48:22;8.30;99.90
47310;DHT22;33046;52.270;6.832;2023-12-22T10:50:29;8.30;99.90
47310;DHT22;33046;52.270;6.832;2023-12-22T10:52:36;8.30;99.90
47310;DHT22;33046;52.270;6.832;2023-12-22T10:54:43;8.30;99.90
47310;DHT22;33046;52.270;6.832;2023-12-22T10:56:50;8.30;99.90
47310;DHT22;33046;52.270;6.832;2023-12-22T10:58:57;8.30;99.90
47310;DHT22;33046;52.270;6.832;2023-12-22T11:01:06;8.20;99.90
47310;DHT22;33046;52.270;6.832;2023-12-22T11:03:17;8.20;99.90
47310;DHT22;33046;52.270;6.832;2023-12-22T11:05:27;8.20;99.90
47310;DHT22;33046;52.270;6.832;2023-12-22T11:07:36;8.20;99.90
47310;DHT22;33046;52.270;6.832;2023-12-22T11:09:43;8.20;99.90
47310;DHT22;33046;52.270;6.832;2023-12-22T11:11:52;8.20;99.90
47310;DHT22;33046;52.270;6.832;2023-12-22T11:14:00;8.20;99.90
47310;DHT22;33046;52.270;6.832;2023-12-22T11:16:07;8.20;99.90
47310;DHT22;33046;52.270;6.832;2023-12-22T11:18:15;8.20;99.90
47310;DHT22;33046;52.270;6.832;2023-12-22T11:20:24;8.30;99.90
47310;DHT22;33046;52.270;6.832;2023-12-22T11:22:32;8.20;99.90
47310;DHT22;33046;52.270;6.832;2023-12-22T11:24:40;8.20;99.90
47310;DHT22;33046;52.270;6.832;2023-12-22T11:26:49;8.20;99.90
47310;DHT22;33046;52.270;6.832;2023-12-22T11:28:59;8.20;99.90
47310;DHT22;33046;52.270;6.832;2023-12-22T11:31:07;8.20;99.90
47310;DHT22;33046;52.270;6.832;2023-12-22T11:33:16;8.20;99.90
47310;DHT22;33046;52.270;6.832;2023-12-22T11:35:25;8.10;99.90
47310;DHT22;33046;52.270;6.832;2023-12-22T11:37:35;8.10;99.90
47310;DHT22;33046;52.270;6.832;2023-12-22T11:39:43;8.20;99.90
47310;DHT22;33046;52.270;6.832;2023-12-22T11:41:50;8.20;99.90
47310;DHT22;33046;52.270;6.832;2023-12-22T11:43:58;8.20;99.90
47310;DHT22;33046;52.270;6.832;2023-12-22T11:46:06;8.20;99.90
47310;DHT22;33046;52.270;6.832;2023-12-22T11:48:13;8.30;99.90
47310;DHT22;33046;52.270;6.832;2023-12-22T11:50:30;8.20;99.90
47310;DHT22;33046;52.270;6.832;2023-12-22T11:52:37;8.20;99.90
47310;DHT22;33046;52.270;6.832;2023-12-22T11:54:46;8.20;99.90
47310;DHT22;33046;52.270;6.832;2023-12-22T11:56:53;8.20;99.90
47310;DHT22;33046;52.270;6.832;2023-12-22T11:59:07;8.20;99.90
47310;DHT22;33046;52.270;6.832;2023-12-22T12:01:14;8.20;99.90
47310;DHT22;33046;52.270;6.832;2023-12-22T12:03:23;8.30;99.90
47310;DHT22;33046;52.270;6.832;2023-12-22T12:05:31;8.30;99.90
47310;DHT22;33046;52.270;6.832;2023-12-22T12:07:39;8.30;99.90
47310;DHT22;33046;52.270;6.832;2023-12-22T12:09:46;8.30;99.90
47310;DHT22;33046;52.270;6.832;2023-12-22T12:12:10;8.30;99.90
47310;DHT22;33046;52.270;6.832;2023-12-22T12:14:22;8.30;99.90
47310;DHT22;33046;52.270;6.832;2023-12-22T12:16:29;8.40;99.90
47310;DHT22;33046;52.270;6.832;2023-12-22T12:18:36;8.40;99.90
47310;DHT22;33046;52.270;6.832;2023-12-22T12:20:45;8.40;99.90
47310;DHT22;33046;52.270;6.832;2023-12-22T12:22:52;8.40;99.90
47310;DHT22;33046;52.270;6.832;2023-12-22T12:24:59;8.40;99.90
47310;DHT22;33046;52.270;6.832;2023-12-22T12:27:06;8.40;99.90
47310;DHT22;33046;52.270;6.832;2023-12-22T12:29:14;8.40;99.90
47310;DHT22;33046;52.270;6.832;2023-12-22T12:31:35;8.40;99.90
47310;DHT22;33046;52.270;6.832;2023-12-22T12:33:42;8.40;99.90
47310;DHT22;33046;52.270;6.832;2023-12-22T12:35:52;8.40;99.90
47310;DHT22;33046;52.270;6.832;2023-12-22T12:38:00;8.40;99.90
47310;DHT22;33046;52.270;6.832;2023-12-22T12:40:08;8.40;99.90
47310;DHT22;33046;52.270;6.832;2023-12-22T12:42:15;8.40;99.90
47310;DHT22;33046;52.270;6.832;2023-12-22T12:44:22;8.40;99.90
47310;DHT22;33046;52.270;6.832;2023-12-22T12:46:32;8.40;99.90
47310;DHT22;33046;52.270;6.832;2023-12-22T12:48:39;8.40;99.90
47310;DHT22;33046;52.270;6.832;2023-12-22T12:50:46;8.40;99.90
47310;DHT22;33046;52.270;6.832;2023-12-22T12:52:55;8.40;99.90
47310;DHT22;33046;52.270;6.832;2023-12-22T12:55:02;8.40;99.90
47310;DHT22;33046;52.270;6.832;2023-12-22T12:57:14;8.40;99.90
47310;DHT22;33046;52.270;6.832;2023-12-22T12:59:21;8.40;99.90
47310;DHT22;33046;52.270;6.832;2023-12-22T13:01:28;8.40;99.90
47310;DHT22;33046;52.270;6.832;2023-12-22T13:03:51;8.40;99.90
47310;DHT22;33046;52.270;6.832;2023-12-22T13:06:06;8.40;99.90
47310;DHT22;33046;52.270;6.832;2023-12-22T13:08:15;8.40;99.90
47310;DHT22;33046;52.270;6.832;2023-12-22T13:10:22;8.40;99.90
47310;DHT22;33046;52.270;6.832;2023-12-22T13:12:32;8.40;99.90
47310;DHT22;33046;52.270;6.832;2023-12-22T13:14:39;8.40;99.90
47310;DHT22;33046;52.270;6.832;2023-12-22T13:16:46;8.40;99.90
47310;DHT22;33046;52.270;6.832;2023-12-22T13:18:53;8.40;99.90
47310;DHT22;33046;52.270;6.832;2023-12-22T13:21:00;8.40;99.90
47310;DHT22;33046;52.270;6.832;2023-12-22T13:23:07;8.40;99.90
47310;DHT22;33046;52.270;6.832;2023-12-22T13:25:15;8.40;99.90
47310;DHT22;33046;52.270;6.832;2023-12-22T13:27:22;8.40;99.90
47310;DHT22;33046;52.270;6.832;2023-12-22T13:29:29;8.30;99.90
47310;DHT22;33046;52.270;6.832;2023-12-22T13:31:37;8.30;99.90
47310;DHT22;33046;52.270;6.832;2023-12-22T13:33:44;8.30;99.90
47310;DHT22;33046;52.270;6.832;2023-12-22T13:35:51;8.30;99.90
47310;DHT22;33046;52.270;6.832;2023-12-22T13:37:58;8.30;99.90